createdAt,value
2017-11-30T00:01:27.460Z,6.24
2017-11-30T00:03:55.787Z,6.44
2017-11-30T00:06:24.049Z,6.54
2017-11-30T00:08:52.313Z,6.52
2017-11-30T00:11:20.708Z,6.41
2017-11-30T00:13:48.985Z,6.33
2017-11-30T00:16:17.290Z,6.13
2017-11-30T00:18:45.575Z,6.07
2017-11-30T00:21:13.848Z,6.17
2017-11-30T00:23:42.140Z,6.28
2017-11-30T00:26:10.404Z,6.39
2017-11-30T00:28:38.694Z,6.28
2017-11-30T00:31:06.953Z,6.43
2017-11-30T00:33:35.257Z,6.50
2017-11-30T00:36:04.189Z,6.22
2017-11-30T00:38:32.496Z,6.34
2017-11-30T00:41:00.813Z,6.40
2017-11-30T00:43:31.511Z,6.33
2017-11-30T00:45:59.778Z,6.27
2017-11-30T00:48:28.057Z,6.24
2017-11-30T00:50:56.385Z,6.16
2017-11-30T00:53:24.708Z,6.23
2017-11-30T00:55:52.961Z,6.24
2017-11-30T00:58:21.265Z,6.03
2017-11-30T01:00:49.567Z,5.96
2017-11-30T01:03:17.799Z,5.97
2017-11-30T01:05:46.099Z,6.04
2017-11-30T01:08:14.364Z,5.89
2017-11-30T01:10:42.644Z,5.68
2017-11-30T01:13:10.910Z,6.03
2017-11-30T01:15:39.212Z,5.87
2017-11-30T01:18:07.484Z,5.48
2017-11-30T01:20:35.789Z,5.14
2017-11-30T01:23:04.065Z,4.89
2017-11-30T01:25:32.357Z,4.63
2017-11-30T01:28:00.634Z,4.29
2017-11-30T01:30:28.880Z,4.28
2017-11-30T01:32:57.160Z,4.35
2017-11-30T01:35:25.440Z,4.38
2017-11-30T01:37:53.745Z,4.27
2017-11-30T01:40:22.003Z,4.16
2017-11-30T01:42:50.290Z,4.39
2017-11-30T01:45:18.568Z,4.58
2017-11-30T01:47:46.851Z,4.70
2017-11-30T01:50:15.160Z,4.77
2017-11-30T01:52:43.453Z,4.92
2017-11-30T01:55:11.774Z,5.17
2017-11-30T01:57:40.025Z,5.06
2017-11-30T02:00:08.306Z,4.98
2017-11-30T02:02:36.768Z,5.14
2017-11-30T02:05:05.205Z,5.05
2017-11-30T02:07:33.474Z,4.97
2017-11-30T02:10:01.782Z,5.03
2017-11-30T02:12:30.040Z,5.18
2017-11-30T02:14:58.510Z,5.51
2017-11-30T02:17:26.814Z,5.52
2017-11-30T02:19:55.202Z,5.47
2017-11-30T02:22:23.469Z,5.53
2017-11-30T02:24:51.744Z,5.70
2017-11-30T02:27:20.021Z,5.70
2017-11-30T02:29:48.318Z,5.56
2017-11-30T02:32:16.584Z,5.47
2017-11-30T02:34:44.879Z,5.58
2017-11-30T02:37:13.418Z,5.69
2017-11-30T02:39:41.697Z,5.54
2017-11-30T02:42:10.003Z,5.60
2017-11-30T02:44:38.269Z,5.31
2017-11-30T02:47:06.565Z,5.19
2017-11-30T02:49:34.833Z,5.09
2017-11-30T02:52:03.124Z,5.17
2017-11-30T02:54:31.596Z,5.23
2017-11-30T02:56:59.913Z,5.27
2017-11-30T02:59:28.159Z,5.23
2017-11-30T03:01:56.446Z,5.22
2017-11-30T03:04:24.733Z,5.29
2017-11-30T03:06:53.433Z,5.24
2017-11-30T03:09:22.379Z,5.25
2017-11-30T03:11:50.665Z,5.22
2017-11-30T03:14:20.150Z,5.29
2017-11-30T03:16:48.424Z,5.16
2017-11-30T03:19:16.721Z,5.26
2017-11-30T03:21:44.985Z,5.25
2017-11-30T03:24:13.293Z,5.20
2017-11-30T03:26:41.566Z,5.27
2017-11-30T03:29:09.845Z,5.38
2017-11-30T03:31:38.145Z,5.34
2017-11-30T03:34:06.647Z,5.39
2017-11-30T03:36:35.667Z,5.38
2017-11-30T03:39:03.966Z,5.33
2017-11-30T03:41:32.209Z,5.33
2017-11-30T03:44:01.052Z,5.35
2017-11-30T03:46:29.333Z,5.13
2017-11-30T03:48:58.420Z,4.79
2017-11-30T03:51:26.716Z,4.50
2017-11-30T03:53:54.956Z,4.73
2017-11-30T03:56:23.206Z,4.70
2017-11-30T03:58:51.857Z,4.74
2017-11-30T04:01:20.103Z,4.92
2017-11-30T04:03:48.400Z,4.98
2017-11-30T04:06:16.719Z,4.68
2017-11-30T04:08:45.038Z,4.29
2017-11-30T04:11:13.251Z,4.15
2017-11-30T04:13:41.521Z,4.11
2017-11-30T04:16:09.782Z,3.96
2017-11-30T04:18:38.074Z,4.06
2017-11-30T04:21:06.365Z,4.10
2017-11-30T04:23:34.624Z,4.13
2017-11-30T04:26:02.904Z,4.23
2017-11-30T04:28:31.189Z,4.52
2017-11-30T04:30:59.433Z,4.74
2017-11-30T04:33:27.676Z,4.93
2017-11-30T04:35:55.961Z,4.98
2017-11-30T04:38:24.229Z,4.90
2017-11-30T04:40:52.508Z,5.02
2017-11-30T04:43:20.809Z,5.13
2017-11-30T04:45:49.096Z,5.16
2017-11-30T04:48:17.372Z,5.18
2017-11-30T04:50:45.678Z,5.27
2017-11-30T04:53:13.949Z,5.29
2017-11-30T04:55:42.239Z,5.26
2017-11-30T04:58:10.514Z,5.30
2017-11-30T05:00:38.774Z,5.16
2017-11-30T05:03:07.113Z,5.23
2017-11-30T05:05:35.368Z,5.21
2017-11-30T05:08:04.251Z,5.18
2017-11-30T05:10:32.496Z,5.17
2017-11-30T05:13:00.748Z,5.32
2017-11-30T05:15:29.045Z,5.34
2017-11-30T05:17:57.312Z,5.31
2017-11-30T05:20:25.577Z,5.43
2017-11-30T05:22:53.835Z,5.54
2017-11-30T05:25:22.122Z,5.41
2017-11-30T05:27:50.426Z,5.34
2017-11-30T05:30:18.695Z,5.24
2017-11-30T05:32:46.942Z,5.13
2017-11-30T05:35:15.217Z,5.02
2017-11-30T05:37:43.505Z,5.06
2017-11-30T05:40:11.811Z,5.01
2017-11-30T05:42:40.082Z,5.02
2017-11-30T05:45:08.340Z,5.02
2017-11-30T05:47:36.621Z,5.06
2017-11-30T05:50:04.893Z,5.10
2017-11-30T05:52:33.181Z,5.05
2017-11-30T05:55:01.442Z,5.05
2017-11-30T05:57:29.750Z,5.05
2017-11-30T05:59:58.022Z,5.14
2017-11-30T06:02:26.308Z,5.12
2017-11-30T06:04:54.574Z,5.20
2017-11-30T06:07:22.815Z,5.27
2017-11-30T06:09:51.160Z,5.30
2017-11-30T06:12:19.904Z,5.44
2017-11-30T06:14:48.327Z,5.52
2017-11-30T06:17:16.569Z,5.41
2017-11-30T06:19:44.867Z,5.40
2017-11-30T06:22:13.150Z,5.35
2017-11-30T06:24:41.428Z,5.37
2017-11-30T06:27:09.811Z,5.43
2017-11-30T06:29:38.072Z,5.49
2017-11-30T06:32:06.350Z,5.42
2017-11-30T06:34:34.642Z,5.49
2017-11-30T06:37:02.956Z,5.51
2017-11-30T06:39:31.249Z,5.67
2017-11-30T06:41:59.555Z,5.71
2017-11-30T06:44:27.868Z,5.56
2017-11-30T06:46:56.155Z,5.42
2017-11-30T06:49:24.440Z,5.55
2017-11-30T06:51:52.709Z,5.54
2017-11-30T06:54:21.017Z,5.66
2017-11-30T06:56:49.260Z,5.72
2017-11-30T06:59:17.555Z,5.76
2017-11-30T07:01:45.840Z,5.66
2017-11-30T07:04:14.175Z,5.69
2017-11-30T07:06:42.442Z,5.58
2017-11-30T07:09:10.685Z,5.41
2017-11-30T07:11:39.025Z,5.50
2017-11-30T07:14:07.592Z,5.35
2017-11-30T07:16:35.936Z,5.28
2017-11-30T07:19:04.980Z,5.36
2017-11-30T07:21:33.276Z,5.36
2017-11-30T07:24:01.585Z,5.39
2017-11-30T07:26:29.894Z,5.31
2017-11-30T07:28:58.168Z,5.39
2017-11-30T07:31:26.489Z,5.33
2017-11-30T07:33:54.828Z,5.39
2017-11-30T07:36:23.785Z,5.46
2017-11-30T07:38:52.056Z,5.55
2017-11-30T07:41:20.318Z,5.55
2017-11-30T07:43:48.620Z,5.51
2017-11-30T07:46:16.916Z,5.53
2017-11-30T07:48:45.225Z,5.68
2017-11-30T07:51:13.461Z,5.71
2017-11-30T07:53:42.234Z,5.66
2017-11-30T07:56:10.499Z,5.73
2017-11-30T07:58:38.968Z,5.60
2017-11-30T08:01:07.260Z,5.54
2017-11-30T08:03:35.607Z,5.69
2017-11-30T08:06:04.187Z,5.71
2017-11-30T08:08:32.440Z,5.70
2017-11-30T08:11:00.737Z,5.69
2017-11-30T08:13:29.081Z,5.78
2017-11-30T08:15:57.389Z,5.74
2017-11-30T08:18:25.690Z,5.48
2017-11-30T08:20:54.072Z,5.49
2017-11-30T08:23:22.349Z,5.56
2017-11-30T08:25:50.640Z,5.81
2017-11-30T08:28:18.940Z,5.86
2017-11-30T08:30:47.282Z,5.78
2017-11-30T08:33:15.553Z,5.85
2017-11-30T08:35:43.841Z,5.91
2017-11-30T08:38:12.130Z,5.89
2017-11-30T08:40:40.381Z,5.95
2017-11-30T08:43:08.665Z,5.84
2017-11-30T08:45:36.942Z,6.01
2017-11-30T08:48:05.225Z,5.92
2017-11-30T08:50:34.315Z,5.78
2017-11-30T08:53:02.631Z,5.86
2017-11-30T08:55:31.089Z,5.81
2017-11-30T08:57:59.371Z,5.67
2017-11-30T09:00:27.699Z,5.61
2017-11-30T09:02:55.978Z,5.75
2017-11-30T09:05:24.777Z,5.76
2017-11-30T09:07:53.060Z,5.64
2017-11-30T09:10:21.390Z,5.48
2017-11-30T09:12:49.770Z,5.42
2017-11-30T09:15:18.113Z,5.42
2017-11-30T09:17:46.406Z,5.32
2017-11-30T09:20:14.808Z,5.30
2017-11-30T09:22:43.100Z,5.42
2017-11-30T09:25:11.859Z,5.43
2017-11-30T09:27:40.307Z,5.45
2017-11-30T09:30:08.609Z,5.44
2017-11-30T09:32:36.916Z,5.56
2017-11-30T09:35:05.749Z,5.38
2017-11-30T09:37:34.019Z,5.37
2017-11-30T09:40:02.360Z,5.50
2017-11-30T09:42:30.668Z,5.67
2017-11-30T09:44:59.009Z,5.66
2017-11-30T09:47:27.349Z,5.76
2017-11-30T09:49:55.635Z,5.59
2017-11-30T09:52:23.991Z,5.68
2017-11-30T09:54:52.349Z,5.58
2017-11-30T09:57:20.850Z,5.65
2017-11-30T09:59:49.096Z,5.83
2017-11-30T10:02:17.468Z,5.92
2017-11-30T10:04:45.792Z,5.87
2017-11-30T10:07:14.058Z,5.78
2017-11-30T10:09:42.418Z,5.89
2017-11-30T10:12:10.672Z,5.93
2017-11-30T10:14:39.040Z,5.97
2017-11-30T10:17:07.323Z,6.02
2017-11-30T10:19:35.616Z,5.96
2017-11-30T10:22:03.908Z,5.96
2017-11-30T10:24:32.329Z,6.03
2017-11-30T10:27:00.669Z,5.92
2017-11-30T10:29:29.344Z,5.76
2017-11-30T10:31:57.616Z,5.86
2017-11-30T10:34:25.913Z,5.74
2017-11-30T10:36:54.203Z,5.95
2017-11-30T10:39:22.477Z,5.99
2017-11-30T10:41:50.835Z,5.98
2017-11-30T10:44:19.186Z,6.00
2017-11-30T10:46:47.502Z,6.06
2017-11-30T10:49:16.380Z,6.12
2017-11-30T10:51:44.689Z,6.10
2017-11-30T10:54:12.985Z,5.99
2017-11-30T10:56:41.417Z,6.14
2017-11-30T10:59:09.712Z,6.20
2017-11-30T11:01:39.000Z,6.31
2017-11-30T11:04:07.310Z,6.46
2017-11-30T11:06:36.280Z,6.36
2017-11-30T11:09:05.398Z,6.41
2017-11-30T11:11:33.706Z,6.53
2017-11-30T11:14:02.021Z,6.45
2017-11-30T11:16:30.345Z,6.54
2017-11-30T11:18:58.949Z,6.52
2017-11-30T11:21:27.224Z,6.47
2017-11-30T11:23:55.826Z,6.51
2017-11-30T11:26:24.120Z,6.56
2017-11-30T11:28:52.466Z,6.62
2017-11-30T11:31:20.728Z,6.64
2017-11-30T11:33:49.034Z,6.64
2017-11-30T11:36:17.374Z,6.73
2017-11-30T11:38:45.756Z,6.81
2017-11-30T11:41:14.040Z,6.81
2017-11-30T11:43:42.318Z,6.94
2017-11-30T11:46:10.619Z,7.10
2017-11-30T11:48:38.881Z,7.07
2017-11-30T11:51:07.169Z,7.06
2017-11-30T11:53:36.081Z,7.16
2017-11-30T11:56:04.659Z,7.22
2017-11-30T11:58:32.937Z,7.16
2017-11-30T12:01:01.205Z,7.08
2017-11-30T12:03:29.497Z,7.14
2017-11-30T12:05:58.385Z,7.11
2017-11-30T12:08:27.184Z,7.07
2017-11-30T12:10:55.504Z,6.80
2017-11-30T12:13:23.859Z,6.88
2017-11-30T12:15:52.134Z,6.86
2017-11-30T12:18:20.448Z,6.79
2017-11-30T12:20:48.737Z,6.92
2017-11-30T12:23:17.087Z,6.97
2017-11-30T12:25:45.397Z,7.01
2017-11-30T12:28:13.682Z,7.06
2017-11-30T12:30:41.968Z,7.08
2017-11-30T12:33:10.228Z,6.99
2017-11-30T12:35:39.421Z,7.07
2017-11-30T12:38:07.684Z,7.01
2017-11-30T12:40:36.034Z,7.09
2017-11-30T12:43:05.089Z,6.92
2017-11-30T12:45:33.416Z,6.84
2017-11-30T12:48:01.734Z,6.82
2017-11-30T12:50:29.997Z,6.96
2017-11-30T12:52:58.260Z,6.91
2017-11-30T12:55:26.597Z,6.94
2017-11-30T12:57:54.875Z,6.86
2017-11-30T13:00:23.171Z,6.91
2017-11-30T13:02:51.455Z,7.04
2017-11-30T13:05:19.799Z,6.99
2017-11-30T13:07:48.104Z,7.13
2017-11-30T13:10:16.384Z,7.11
2017-11-30T13:12:44.860Z,6.92
2017-11-30T13:15:13.162Z,6.57
2017-11-30T13:17:41.444Z,6.40
2017-11-30T13:20:09.793Z,6.34
2017-11-30T13:22:38.481Z,6.37
2017-11-30T13:25:06.790Z,6.03
2017-11-30T13:27:36.167Z,6.01
2017-11-30T13:30:04.424Z,5.99
2017-11-30T13:32:33.638Z,5.81
2017-11-30T13:35:03.238Z,5.76
2017-11-30T13:37:31.648Z,5.94
2017-11-30T13:40:00.822Z,6.02
2017-11-30T13:42:29.095Z,6.12
2017-11-30T13:44:57.390Z,6.12
2017-11-30T13:47:25.634Z,6.11
2017-11-30T13:49:54.171Z,6.02
2017-11-30T13:52:22.513Z,6.10
2017-11-30T13:54:50.867Z,6.12
2017-11-30T13:57:19.157Z,6.31
2017-11-30T13:59:47.432Z,6.32
2017-11-30T14:02:15.714Z,6.35
2017-11-30T14:04:44.063Z,6.41
2017-11-30T14:07:12.338Z,6.46
2017-11-30T14:09:40.620Z,6.42
2017-11-30T14:12:08.935Z,6.35
2017-11-30T14:14:37.266Z,6.38
2017-11-30T14:17:05.894Z,6.33
2017-11-30T14:19:34.207Z,6.38
2017-11-30T14:22:02.489Z,6.29
2017-11-30T14:24:30.801Z,6.38
2017-11-30T14:26:59.103Z,6.44
2017-11-30T14:29:27.488Z,6.38
2017-11-30T14:31:55.806Z,6.30
2017-11-30T14:34:24.072Z,6.24
2017-11-30T14:36:52.339Z,6.30
2017-11-30T14:39:21.323Z,6.28
2017-11-30T14:41:50.829Z,6.34
2017-11-30T14:44:19.195Z,6.32
2017-11-30T14:46:47.554Z,6.32
2017-11-30T14:49:15.835Z,6.14
2017-11-30T14:51:44.991Z,6.27
2017-11-30T14:54:13.269Z,5.94
2017-11-30T14:56:41.563Z,5.78
2017-11-30T14:59:09.871Z,5.85
2017-11-30T15:01:38.258Z,5.64
2017-11-30T15:04:06.528Z,5.67
2017-11-30T15:06:34.791Z,5.62
2017-11-30T15:09:03.274Z,5.65
2017-11-30T15:11:31.630Z,5.44
2017-11-30T15:14:00.021Z,5.72
2017-11-30T15:16:28.396Z,5.68
2017-11-30T15:18:57.538Z,5.76
2017-11-30T15:21:27.264Z,5.68
2017-11-30T15:23:55.536Z,5.78
2017-11-30T15:26:24.439Z,5.69
2017-11-30T15:28:52.795Z,5.70
2017-11-30T15:31:21.067Z,5.75
2017-11-30T15:33:50.069Z,5.72
2017-11-30T15:36:18.416Z,5.66
2017-11-30T15:38:46.744Z,5.54
2017-11-30T15:41:15.064Z,5.63
2017-11-30T15:43:43.344Z,5.55
2017-11-30T15:46:11.693Z,5.63
2017-11-30T15:48:39.977Z,5.51
2017-11-30T15:51:08.647Z,5.48
2017-11-30T15:53:36.905Z,5.38
2017-11-30T15:56:05.312Z,5.47
2017-11-30T15:58:34.380Z,5.48
2017-11-30T16:01:02.695Z,5.43
2017-11-30T16:03:31.059Z,5.54
2017-11-30T16:05:59.373Z,5.63
2017-11-30T16:08:27.619Z,5.63
2017-11-30T16:10:55.890Z,5.63
2017-11-30T16:13:24.471Z,5.58
2017-11-30T16:15:52.853Z,5.68
2017-11-30T16:18:21.128Z,5.74
2017-11-30T16:20:49.394Z,5.68
2017-11-30T16:23:17.731Z,5.64
2017-11-30T16:25:45.983Z,5.42
2017-11-30T16:28:14.260Z,5.65
2017-11-30T16:30:42.511Z,5.78
2017-11-30T16:33:10.786Z,5.72
2017-11-30T16:35:39.054Z,5.64
2017-11-30T16:38:07.336Z,5.65
2017-11-30T16:40:35.612Z,5.73
2017-11-30T16:43:03.883Z,5.72
2017-11-30T16:45:32.203Z,5.60
2017-11-30T16:48:00.497Z,5.23
2017-11-30T16:50:28.802Z,5.36
2017-11-30T16:52:58.121Z,5.48
2017-11-30T16:55:26.403Z,5.56
2017-11-30T16:57:55.764Z,5.56
2017-11-30T17:00:23.995Z,5.47
2017-11-30T17:02:52.278Z,5.43
2017-11-30T17:05:20.565Z,5.38
2017-11-30T17:07:48.868Z,5.44
2017-11-30T17:10:17.162Z,5.56
2017-11-30T17:12:45.456Z,5.48
2017-11-30T17:15:13.747Z,5.52
2017-11-30T17:17:42.012Z,5.51
2017-11-30T17:20:10.346Z,5.56
2017-11-30T17:22:38.705Z,5.45
2017-11-30T17:25:07.079Z,5.50
2017-11-30T17:27:35.343Z,5.38
2017-11-30T17:30:03.627Z,5.31
2017-11-30T17:32:31.951Z,5.41
2017-11-30T17:35:00.263Z,5.56
2017-11-30T17:37:28.530Z,5.52
2017-11-30T17:39:56.946Z,5.48
2017-11-30T17:42:25.186Z,5.60
2017-11-30T17:44:53.526Z,5.58
2017-11-30T17:47:21.800Z,5.54
2017-11-30T17:49:50.156Z,5.47
2017-11-30T17:52:18.416Z,5.46
2017-11-30T17:54:46.664Z,5.57
2017-11-30T17:57:14.984Z,5.50
2017-11-30T17:59:43.246Z,5.39
2017-11-30T18:02:11.543Z,5.31
2017-11-30T18:04:39.905Z,5.23
2017-11-30T18:07:08.192Z,5.21
2017-11-30T18:09:36.468Z,5.30
2017-11-30T18:12:05.442Z,5.31
2017-11-30T18:14:33.720Z,5.23
2017-11-30T18:17:02.127Z,5.37
2017-11-30T18:19:30.423Z,5.31
2017-11-30T18:21:58.728Z,5.21
2017-11-30T18:24:27.027Z,5.31
2017-11-30T18:26:55.791Z,5.38
2017-11-30T18:29:24.091Z,5.41
2017-11-30T18:31:52.376Z,5.44
2017-11-30T18:34:20.687Z,5.43
2017-11-30T18:36:48.937Z,5.32
2017-11-30T18:39:17.213Z,5.38
2017-11-30T18:41:45.563Z,5.44
2017-11-30T18:44:13.833Z,5.36
2017-11-30T18:46:42.107Z,5.48
2017-11-30T18:49:10.479Z,5.40
2017-11-30T18:51:38.870Z,5.40
2017-11-30T18:54:07.156Z,5.37
2017-11-30T18:56:35.440Z,5.44
2017-11-30T18:59:03.694Z,5.39
2017-11-30T19:01:31.995Z,5.49
2017-11-30T19:04:00.259Z,5.36
2017-11-30T19:06:28.626Z,5.30
2017-11-30T19:08:56.865Z,5.18
2017-11-30T19:11:25.239Z,5.11
2017-11-30T19:13:53.519Z,5.26
2017-11-30T19:16:21.820Z,5.33
2017-11-30T19:18:50.091Z,5.20
2017-11-30T19:21:18.354Z,5.10
2017-11-30T19:23:46.656Z,5.02
2017-11-30T19:26:14.942Z,5.10
2017-11-30T19:28:43.211Z,5.04
2017-11-30T19:31:11.993Z,5.09
2017-11-30T19:33:41.209Z,4.99
2017-11-30T19:36:09.499Z,5.09
2017-11-30T19:38:37.788Z,5.09
2017-11-30T19:41:06.074Z,4.98
2017-11-30T19:43:34.335Z,5.12
2017-11-30T19:46:02.646Z,4.98
2017-11-30T19:48:30.936Z,4.77
2017-11-30T19:50:59.239Z,4.68
2017-11-30T19:53:27.515Z,4.61
2017-11-30T19:55:55.766Z,4.69
2017-11-30T19:58:24.054Z,4.65
2017-11-30T20:00:52.317Z,4.88
2017-11-30T20:03:20.599Z,4.87
2017-11-30T20:05:48.880Z,4.81
2017-11-30T20:08:17.153Z,4.71
2017-11-30T20:10:45.464Z,4.56
2017-11-30T20:13:13.741Z,4.61
2017-11-30T20:15:42.018Z,4.49
2017-11-30T20:18:10.322Z,4.59
2017-11-30T20:20:38.619Z,4.67
2017-11-30T20:23:06.935Z,4.51
2017-11-30T20:25:35.221Z,4.49
2017-11-30T20:28:03.479Z,4.64
2017-11-30T20:30:31.767Z,4.53
2017-11-30T20:33:00.063Z,4.65
2017-11-30T20:35:28.358Z,4.60
2017-11-30T20:37:56.671Z,4.54
2017-11-30T20:40:24.963Z,4.60
2017-11-30T20:42:53.228Z,4.72
2017-11-30T20:45:21.599Z,4.64
2017-11-30T20:47:50.455Z,4.63
2017-11-30T20:50:18.729Z,4.56
2017-11-30T20:52:47.086Z,4.70
2017-11-30T20:55:15.396Z,4.78
2017-11-30T20:57:43.660Z,4.93
2017-11-30T21:00:12.223Z,5.02
2017-11-30T21:02:40.520Z,5.00
2017-11-30T21:05:08.819Z,4.98
2017-11-30T21:07:37.182Z,4.82
2017-11-30T21:10:05.458Z,4.77
2017-11-30T21:12:33.743Z,4.85
2017-11-30T21:15:02.047Z,4.74
2017-11-30T21:17:30.310Z,4.66
2017-11-30T21:19:58.605Z,4.63
2017-11-30T21:22:26.882Z,4.68
2017-11-30T21:24:55.210Z,4.64
2017-11-30T21:27:23.532Z,4.39
2017-11-30T21:29:52.714Z,4.48
2017-11-30T21:32:20.968Z,4.58
2017-11-30T21:34:49.268Z,4.63
2017-11-30T21:37:17.547Z,4.84
2017-11-30T21:39:45.850Z,4.95
2017-11-30T21:42:14.100Z,4.98
2017-11-30T21:44:42.455Z,4.79
2017-11-30T21:47:10.774Z,4.87
2017-11-30T21:49:39.068Z,4.67
2017-11-30T21:52:07.339Z,4.54
2017-11-30T21:54:36.506Z,4.43
2017-11-30T21:57:05.773Z,4.42
2017-11-30T21:59:34.055Z,4.25
2017-11-30T22:02:02.420Z,4.33
2017-11-30T22:04:30.679Z,4.47
2017-11-30T22:06:58.972Z,4.63
2017-11-30T22:09:27.258Z,4.81
2017-11-30T22:11:55.928Z,4.83
2017-11-30T22:14:24.186Z,4.67
2017-11-30T22:16:52.449Z,4.71
2017-11-30T22:19:21.540Z,4.65
2017-11-30T22:21:49.791Z,4.67
2017-11-30T22:24:18.100Z,4.65
2017-11-30T22:26:46.363Z,4.45
2017-11-30T22:29:14.644Z,4.20
2017-11-30T22:31:42.923Z,4.36
2017-11-30T22:34:11.207Z,4.29
2017-11-30T22:36:39.486Z,4.25
2017-11-30T22:39:08.091Z,4.24
2017-11-30T22:41:36.410Z,4.30
2017-11-30T22:44:05.852Z,4.25
2017-11-30T22:46:34.179Z,4.33
2017-11-30T22:49:02.420Z,4.31
2017-11-30T22:51:30.702Z,4.47
2017-11-30T22:53:58.974Z,4.42
2017-11-30T22:56:27.299Z,4.28
2017-11-30T22:58:55.575Z,4.11
2017-11-30T23:01:23.870Z,4.01
2017-11-30T23:03:52.180Z,3.87
2017-11-30T23:06:20.456Z,3.88
2017-11-30T23:08:48.751Z,4.00
2017-11-30T23:11:17.728Z,4.01
2017-11-30T23:13:45.991Z,3.97
2017-11-30T23:16:14.272Z,3.85
2017-11-30T23:18:42.555Z,3.87
2017-11-30T23:21:10.820Z,3.82
2017-11-30T23:23:39.105Z,3.80
2017-11-30T23:26:07.376Z,3.70
2017-11-30T23:28:35.916Z,3.67
2017-11-30T23:31:05.020Z,3.68
2017-11-30T23:33:33.342Z,3.70
2017-11-30T23:36:01.610Z,3.61
2017-11-30T23:38:30.062Z,3.49
2017-11-30T23:40:58.319Z,3.39
2017-11-30T23:43:26.599Z,3.53
2017-11-30T23:45:54.904Z,3.55
2017-11-30T23:48:23.180Z,3.52
2017-11-30T23:50:51.477Z,3.60
2017-11-30T23:53:20.443Z,3.45
2017-11-30T23:55:48.714Z,3.53
2017-11-30T23:58:16.979Z,3.65
